createdAt,value
2022-08-27T00:00:32.031Z,22.51
2022-08-27T00:02:59.264Z,22.50
2022-08-27T00:05:25.872Z,22.49
2022-08-27T00:07:52.445Z,22.47
2022-08-27T00:10:23.069Z,22.47
2022-08-27T00:12:49.655Z,22.46
2022-08-27T00:15:17.854Z,22.45
2022-08-27T00:17:45.932Z,22.43
2022-08-27T00:20:15.806Z,22.41
2022-08-27T00:22:42.401Z,22.40
2022-08-27T00:25:10.359Z,22.39
2022-08-27T00:27:37.836Z,22.38
2022-08-27T00:30:07.039Z,22.37
2022-08-27T00:32:33.587Z,22.36
2022-08-27T00:35:00.146Z,22.36
2022-08-27T00:37:26.754Z,22.35
2022-08-27T00:39:53.730Z,22.35
2022-08-27T00:42:20.321Z,22.35
2022-08-27T00:44:47.179Z,22.33
2022-08-27T00:47:18.487Z,22.31
2022-08-27T00:49:54.644Z,22.28
2022-08-27T00:52:33.428Z,22.27
2022-08-27T00:55:10.173Z,22.27
2022-08-27T00:57:39.159Z,22.29
2022-08-27T01:00:08.973Z,22.28
2022-08-27T01:02:35.771Z,22.28
2022-08-27T01:05:09.032Z,22.24
2022-08-27T01:07:39.319Z,22.25
2022-08-27T01:10:20.034Z,22.25
2022-08-27T01:12:53.344Z,22.26
2022-08-27T01:15:22.731Z,22.24
2022-08-27T01:17:50.118Z,22.24
2022-08-27T01:20:21.036Z,22.23
2022-08-27T01:23:04.494Z,22.19
2022-08-27T01:25:31.542Z,22.23
2022-08-27T01:28:00.729Z,22.21
2022-08-27T01:30:27.465Z,22.19
2022-08-27T01:32:54.822Z,22.17
2022-08-27T01:35:23.350Z,22.15
2022-08-27T01:37:53.717Z,22.11
2022-08-27T01:40:24.544Z,22.10
2022-08-27T01:42:55.512Z,22.07
2022-08-27T01:45:32.749Z,22.03
2022-08-27T01:48:00.385Z,22.05
2022-08-27T01:50:31.947Z,22.02
2022-08-27T01:53:04.302Z,22.00
2022-08-27T01:55:30.951Z,22.00
2022-08-27T01:57:57.520Z,21.99
2022-08-27T02:00:34.932Z,21.96
2022-08-27T02:03:01.566Z,21.97
2022-08-27T02:05:29.053Z,21.98
2022-08-27T02:07:56.257Z,21.98
2022-08-27T02:10:27.546Z,21.98
2022-08-27T02:12:54.329Z,22.00
2022-08-27T02:15:21.838Z,21.99
2022-08-27T02:17:48.546Z,22.00
2022-08-27T02:20:15.809Z,21.99
2022-08-27T02:22:42.608Z,22.00
2022-08-27T02:25:12.246Z,22.00
2022-08-27T02:27:38.987Z,21.98
2022-08-27T02:30:06.233Z,21.98
2022-08-27T02:32:33.027Z,21.96
2022-08-27T02:35:00.501Z,21.96
2022-08-27T02:37:28.289Z,21.92
2022-08-27T02:39:54.905Z,21.91
2022-08-27T02:42:21.689Z,21.91
2022-08-27T02:44:48.589Z,21.88
2022-08-27T02:47:16.815Z,21.87
2022-08-27T02:49:44.471Z,21.86
2022-08-27T02:52:11.145Z,21.83
2022-08-27T02:54:37.679Z,21.81
2022-08-27T02:57:05.558Z,21.80
2022-08-27T02:59:32.090Z,21.78
2022-08-27T03:01:58.722Z,21.76
2022-08-27T03:04:25.421Z,21.74
2022-08-27T03:06:52.009Z,21.73
2022-08-27T03:09:18.548Z,21.73
2022-08-27T03:11:45.147Z,21.72
2022-08-27T03:14:12.818Z,21.71
2022-08-27T03:16:40.113Z,21.72
2022-08-27T03:19:07.465Z,21.70
2022-08-27T03:21:35.474Z,21.69
2022-08-27T03:24:11.264Z,21.68
2022-08-27T03:26:39.395Z,21.66
2022-08-27T03:29:07.829Z,21.65
2022-08-27T03:31:34.406Z,21.64
2022-08-27T03:34:04.423Z,21.63
2022-08-27T03:36:31.695Z,21.64
2022-08-27T03:38:58.550Z,21.65
2022-08-27T03:41:43.831Z,21.64
2022-08-27T03:44:16.741Z,21.65
2022-08-27T03:46:48.759Z,21.66
2022-08-27T03:49:15.374Z,21.65
2022-08-27T03:51:47.370Z,21.64
2022-08-27T03:54:13.936Z,21.63
2022-08-27T03:56:41.628Z,21.61
2022-08-27T03:59:08.344Z,21.60
2022-08-27T04:01:35.104Z,21.58
2022-08-27T04:04:01.901Z,21.55
2022-08-27T04:06:28.518Z,21.53
2022-08-27T04:08:55.107Z,21.50
2022-08-27T04:11:22.162Z,21.47
2022-08-27T04:13:48.849Z,21.46
2022-08-27T04:16:15.577Z,21.45
2022-08-27T04:18:42.281Z,21.41
2022-08-27T04:21:11.407Z,21.39
2022-08-27T04:23:39.823Z,21.37
2022-08-27T04:26:08.357Z,21.35
2022-08-27T04:28:38.655Z,21.35
2022-08-27T04:31:06.325Z,21.34
2022-08-27T04:33:35.993Z,21.32
2022-08-27T04:36:06.099Z,21.30
2022-08-27T04:38:33.609Z,21.31
2022-08-27T04:41:19.970Z,21.28
2022-08-27T04:43:58.024Z,21.25
2022-08-27T04:46:30.551Z,21.25
2022-08-27T04:48:59.479Z,21.26
2022-08-27T04:51:26.933Z,21.26
2022-08-27T04:53:53.860Z,21.24
2022-08-27T04:56:23.797Z,21.22
2022-08-27T04:58:53.514Z,21.20
2022-08-27T05:01:26.303Z,21.18
2022-08-27T05:03:54.414Z,21.18
2022-08-27T05:06:22.020Z,21.17
2022-08-27T05:08:50.412Z,21.16
2022-08-27T05:11:19.165Z,21.13
2022-08-27T05:13:46.374Z,21.13
2022-08-27T05:16:16.181Z,21.12
2022-08-27T05:18:48.178Z,21.11
2022-08-27T05:21:21.087Z,21.08
2022-08-27T05:23:48.342Z,21.11
2022-08-27T05:26:15.913Z,21.07
2022-08-27T05:28:42.938Z,21.06
2022-08-27T05:31:11.766Z,21.06
2022-08-27T05:33:39.960Z,21.05
2022-08-27T05:36:07.750Z,21.05
2022-08-27T05:38:35.013Z,21.04
2022-08-27T05:41:11.594Z,21.01
2022-08-27T05:43:40.235Z,21.04
2022-08-27T05:46:10.032Z,21.03
2022-08-27T05:48:37.560Z,21.01
2022-08-27T05:51:08.429Z,21.01
2022-08-27T05:53:35.912Z,21.02
2022-08-27T05:56:02.654Z,21.03
2022-08-27T05:58:48.630Z,21.02
2022-08-27T06:01:20.785Z,21.02
2022-08-27T06:03:47.428Z,21.03
2022-08-27T06:06:14.513Z,21.02
2022-08-27T06:08:41.139Z,21.02
2022-08-27T06:11:08.112Z,21.02
2022-08-27T06:13:35.983Z,21.02
2022-08-27T06:16:09.286Z,21.00
2022-08-27T06:18:41.174Z,21.01
2022-08-27T06:21:08.153Z,21.02
2022-08-27T06:23:35.112Z,21.01
2022-08-27T06:26:05.381Z,21.00
2022-08-27T06:28:34.000Z,21.00
2022-08-27T06:31:17.720Z,20.96
2022-08-27T06:33:46.249Z,21.01
2022-08-27T06:36:16.294Z,20.96
2022-08-27T06:38:43.282Z,20.99
2022-08-27T06:41:23.272Z,20.99
2022-08-27T06:43:51.076Z,21.00
2022-08-27T06:46:20.351Z,21.00
2022-08-27T06:48:49.938Z,21.02
2022-08-27T06:51:24.480Z,21.02
2022-08-27T06:53:52.393Z,21.06
2022-08-27T06:56:20.032Z,21.09
2022-08-27T06:58:47.161Z,21.12
2022-08-27T07:01:16.102Z,21.14
2022-08-27T07:03:43.726Z,21.18
2022-08-27T07:06:13.334Z,21.20
2022-08-27T07:08:41.169Z,21.25
2022-08-27T07:11:09.850Z,21.27
2022-08-27T07:13:37.310Z,21.30
2022-08-27T07:16:06.395Z,21.32
2022-08-27T07:18:34.518Z,21.35
2022-08-27T07:21:01.153Z,21.38
2022-08-27T07:23:28.597Z,21.40
2022-08-27T07:25:55.145Z,21.43
2022-08-27T07:28:21.708Z,21.47
2022-08-27T07:30:48.361Z,21.49
2022-08-27T07:33:15.116Z,21.52
2022-08-27T07:35:41.861Z,21.53
2022-08-27T07:38:14.262Z,21.55
2022-08-27T07:40:43.215Z,21.59
2022-08-27T07:43:45.819Z,21.62
2022-08-27T07:46:12.478Z,21.66
2022-08-27T07:48:39.116Z,21.68
2022-08-27T07:51:13.072Z,21.72
2022-08-27T07:53:39.811Z,21.76
2022-08-27T07:56:08.554Z,21.78
2022-08-27T07:58:35.564Z,21.82
2022-08-27T08:01:02.851Z,21.86
2022-08-27T08:03:31.078Z,21.91
2022-08-27T08:06:02.382Z,21.97
2022-08-27T08:08:36.092Z,22.03
2022-08-27T08:11:06.449Z,22.09
2022-08-27T08:13:36.275Z,22.16
2022-08-27T08:16:04.942Z,22.20
2022-08-27T08:18:31.559Z,22.26
2022-08-27T08:21:03.388Z,22.29
2022-08-27T08:23:29.998Z,22.36
2022-08-27T08:25:57.756Z,22.43
2022-08-27T08:28:24.777Z,22.48
2022-08-27T08:30:52.638Z,22.55
2022-08-27T08:33:19.308Z,22.61
2022-08-27T08:35:45.892Z,22.70
2022-08-27T08:38:12.475Z,22.78
2022-08-27T08:40:42.645Z,22.87
2022-08-27T08:43:41.690Z,22.92
2022-08-27T08:46:17.342Z,23.06
2022-08-27T08:48:49.446Z,23.11
2022-08-27T08:51:40.697Z,23.15
2022-08-27T08:54:14.097Z,23.20
2022-08-27T08:56:54.939Z,23.22
2022-08-27T08:59:28.471Z,23.26
2022-08-27T09:01:55.135Z,23.28
2022-08-27T09:04:25.740Z,23.30
2022-08-27T09:06:52.410Z,23.33
2022-08-27T09:09:23.981Z,23.33
2022-08-27T09:11:56.154Z,23.38
2022-08-27T09:14:35.262Z,23.38
2022-08-27T09:17:07.171Z,23.45
2022-08-27T09:19:38.008Z,23.47
2022-08-27T09:22:32.682Z,23.45
2022-08-27T09:25:20.363Z,23.50
2022-08-27T09:27:51.814Z,23.56
2022-08-27T09:30:30.511Z,23.57
2022-08-27T09:33:01.729Z,23.62
2022-08-27T09:35:39.119Z,23.63
2022-08-27T09:38:05.749Z,23.68
2022-08-27T09:40:40.107Z,23.69
2022-08-27T09:43:21.834Z,23.72
2022-08-27T09:45:51.688Z,23.75
2022-08-27T09:48:21.447Z,23.77
2022-08-27T09:50:55.091Z,23.79
2022-08-27T09:53:27.285Z,23.85
2022-08-27T09:56:03.385Z,23.88
2022-08-27T09:58:47.429Z,23.97
2022-08-27T10:01:26.774Z,24.03
2022-08-27T10:04:06.548Z,24.10
2022-08-27T10:06:33.388Z,24.18
2022-08-27T10:09:07.332Z,24.22
2022-08-27T10:11:41.015Z,24.26
2022-08-27T10:14:21.585Z,24.28
2022-08-27T10:17:00.335Z,24.35
2022-08-27T10:19:36.056Z,24.36
2022-08-27T10:22:17.983Z,24.41
2022-08-27T10:25:06.733Z,24.41
2022-08-27T10:28:02.437Z,24.46
2022-08-27T10:30:38.037Z,24.52
2022-08-27T10:33:04.799Z,24.59
2022-08-27T10:36:06.068Z,24.62
2022-08-27T10:38:50.196Z,24.67
2022-08-27T10:41:20.018Z,24.77
2022-08-27T10:44:39.464Z,24.85
2022-08-27T10:47:49.442Z,25.03
2022-08-27T10:51:12.588Z,25.18
2022-08-27T10:54:22.774Z,25.26
2022-08-27T10:57:26.305Z,25.32
2022-08-27T11:00:12.170Z,25.28
2022-08-27T11:02:44.652Z,25.28
2022-08-27T11:05:45.112Z,25.18
2022-08-27T11:08:17.229Z,25.21
2022-08-27T11:10:49.368Z,25.23
2022-08-27T11:13:25.030Z,25.35
2022-08-27T11:15:54.760Z,25.66
2022-08-27T11:18:40.277Z,26.12
2022-08-27T11:21:07.904Z,26.74
2022-08-27T11:23:45.501Z,27.35
2022-08-27T11:26:12.819Z,27.84
2022-08-27T11:28:48.018Z,28.14
2022-08-27T11:31:49.197Z,28.29
2022-08-27T11:34:42.518Z,28.34
2022-08-27T11:37:37.960Z,28.33
2022-08-27T11:40:07.874Z,28.26
2022-08-27T11:42:48.441Z,28.07
2022-08-27T11:45:24.586Z,27.90
2022-08-27T11:47:59.698Z,27.72
2022-08-27T11:50:28.826Z,27.57
2022-08-27T11:53:02.198Z,27.37
2022-08-27T11:55:32.648Z,27.23
2022-08-27T11:58:07.843Z,27.04
2022-08-27T12:00:38.472Z,26.94
2022-08-27T12:03:22.538Z,26.76
2022-08-27T12:06:08.064Z,26.60
2022-08-27T12:08:36.106Z,26.54
2022-08-27T12:11:40.206Z,26.40
2022-08-27T12:14:40.030Z,26.34
2022-08-27T12:17:35.633Z,26.28
2022-08-27T12:20:40.626Z,26.32
2022-08-27T12:23:44.025Z,26.39
2022-08-27T12:26:16.979Z,26.69
2022-08-27T12:28:43.693Z,27.17
2022-08-27T12:31:10.799Z,27.50
2022-08-27T12:33:45.484Z,27.74
2022-08-27T12:36:27.995Z,27.89
2022-08-27T12:38:58.432Z,28.01
2022-08-27T12:41:44.679Z,28.00
2022-08-27T12:44:26.923Z,27.91
2022-08-27T12:47:05.375Z,27.82
2022-08-27T12:49:41.590Z,27.69
2022-08-27T12:52:36.511Z,27.50
2022-08-27T12:55:25.379Z,27.39
2022-08-27T12:57:57.187Z,27.23
2022-08-27T13:00:26.502Z,27.12
2022-08-27T13:02:59.167Z,26.96
2022-08-27T13:05:41.192Z,26.84
2022-08-27T13:08:29.918Z,26.78
2022-08-27T13:11:07.037Z,26.77
2022-08-27T13:13:33.605Z,26.70
2022-08-27T13:16:04.419Z,26.67
2022-08-27T13:18:31.262Z,26.63
2022-08-27T13:21:13.352Z,26.56
2022-08-27T13:23:45.793Z,26.56
2022-08-27T13:26:12.713Z,26.55
2022-08-27T13:28:43.041Z,26.51
2022-08-27T13:31:11.256Z,26.49
2022-08-27T13:33:40.448Z,26.44
2022-08-27T13:36:09.330Z,26.40
2022-08-27T13:38:49.783Z,26.34
2022-08-27T13:41:36.375Z,26.31
2022-08-27T13:44:12.609Z,26.30
2022-08-27T13:46:49.786Z,26.26
2022-08-27T13:49:22.003Z,26.27
2022-08-27T13:51:49.751Z,26.26
2022-08-27T13:54:18.851Z,26.22
2022-08-27T13:56:49.101Z,26.18
2022-08-27T13:59:19.364Z,26.12
2022-08-27T14:01:55.619Z,25.99
2022-08-27T14:04:26.740Z,25.96
2022-08-27T14:06:54.601Z,25.90
2022-08-27T14:09:27.210Z,25.81
2022-08-27T14:12:02.005Z,25.75
2022-08-27T14:14:30.635Z,25.72
2022-08-27T14:16:59.954Z,25.68
2022-08-27T14:19:33.223Z,25.61
2022-08-27T14:22:03.408Z,25.59
2022-08-27T14:24:30.014Z,25.55
2022-08-27T14:27:05.650Z,25.50
2022-08-27T14:29:32.251Z,25.50
2022-08-27T14:31:58.803Z,25.50
2022-08-27T14:34:25.362Z,25.50
2022-08-27T14:36:55.040Z,25.50
2022-08-27T14:39:26.559Z,25.50
2022-08-27T14:41:53.972Z,25.51
2022-08-27T14:44:21.862Z,25.50
2022-08-27T14:46:49.080Z,25.52
2022-08-27T14:49:25.930Z,25.51
2022-08-27T14:51:52.702Z,25.53
2022-08-27T14:54:19.277Z,25.53
2022-08-27T14:56:46.287Z,25.53
2022-08-27T14:59:12.816Z,25.53
2022-08-27T15:01:39.537Z,25.54
2022-08-27T15:04:06.896Z,25.54
2022-08-27T15:06:33.670Z,25.56
2022-08-27T15:09:01.690Z,25.57
2022-08-27T15:11:31.256Z,25.57
2022-08-27T15:14:00.341Z,25.59
2022-08-27T15:16:35.949Z,25.55
2022-08-27T15:19:03.104Z,25.55
2022-08-27T15:21:31.124Z,25.50
2022-08-27T15:24:13.063Z,25.44
2022-08-27T15:26:39.676Z,25.41
2022-08-27T15:29:06.867Z,25.36
2022-08-27T15:31:33.970Z,25.32
2022-08-27T15:34:00.805Z,25.30
2022-08-27T15:36:27.442Z,25.29
2022-08-27T15:38:55.198Z,25.27
2022-08-27T15:41:25.183Z,25.26
2022-08-27T15:43:55.296Z,25.27
2022-08-27T15:46:22.907Z,25.28
2022-08-27T15:48:49.523Z,25.28
2022-08-27T15:51:17.679Z,25.27
2022-08-27T15:53:44.416Z,25.25
2022-08-27T15:56:11.032Z,25.23
2022-08-27T15:58:45.270Z,25.20
2022-08-27T16:01:15.035Z,25.16
2022-08-27T16:03:43.857Z,25.14
2022-08-27T16:06:10.468Z,25.11
2022-08-27T16:08:41.707Z,25.07
2022-08-27T16:11:09.369Z,25.05
2022-08-27T16:13:36.753Z,25.01
2022-08-27T16:16:03.975Z,25.00
2022-08-27T16:18:33.166Z,24.98
2022-08-27T16:21:02.108Z,24.98
2022-08-27T16:23:30.606Z,24.98
2022-08-27T16:25:57.702Z,25.00
2022-08-27T16:28:25.029Z,25.02
2022-08-27T16:30:54.576Z,25.02
2022-08-27T16:33:22.942Z,25.04
2022-08-27T16:35:50.381Z,25.05
2022-08-27T16:38:17.184Z,25.06
2022-08-27T16:40:55.140Z,25.02
2022-08-27T16:43:24.653Z,25.04
2022-08-27T16:45:53.375Z,25.03
2022-08-27T16:48:39.446Z,24.98
2022-08-27T16:51:09.098Z,24.95
2022-08-27T16:53:39.854Z,24.89
2022-08-27T16:56:06.902Z,24.85
2022-08-27T16:58:33.770Z,24.81
2022-08-27T17:01:07.291Z,24.74
2022-08-27T17:04:07.013Z,24.70
2022-08-27T17:06:29.222Z,24.70
2022-08-27T17:08:56.259Z,24.67
2022-08-27T17:11:28.706Z,24.64
2022-08-27T17:13:58.684Z,24.62
2022-08-27T17:16:29.630Z,24.58
2022-08-27T17:18:58.414Z,24.56
2022-08-27T17:21:29.720Z,24.53
2022-08-27T17:23:59.407Z,24.50
2022-08-27T17:26:26.283Z,24.46
2022-08-27T17:28:53.636Z,24.41
2022-08-27T17:31:28.436Z,24.35
2022-08-27T17:33:59.135Z,24.34
2022-08-27T17:36:27.158Z,24.30
2022-08-27T17:38:54.862Z,24.26
2022-08-27T17:41:33.917Z,24.22
2022-08-27T17:44:05.655Z,24.20
2022-08-27T17:46:32.509Z,24.19
2022-08-27T17:48:59.757Z,24.17
2022-08-27T17:51:27.559Z,24.14
2022-08-27T17:54:00.558Z,24.10
2022-08-27T17:56:28.394Z,24.05
2022-08-27T17:58:55.302Z,24.02
2022-08-27T18:01:28.747Z,23.97
2022-08-27T18:03:56.729Z,23.94
2022-08-27T18:06:24.002Z,23.90
2022-08-27T18:08:50.609Z,23.85
2022-08-27T18:11:17.648Z,23.80
2022-08-27T18:13:48.112Z,23.74
2022-08-27T18:16:14.725Z,23.71
2022-08-27T18:18:41.850Z,23.67
2022-08-27T18:21:08.525Z,23.63
2022-08-27T18:23:36.978Z,23.60
2022-08-27T18:26:06.619Z,23.54
2022-08-27T18:28:34.195Z,23.51
2022-08-27T18:31:03.724Z,23.46
2022-08-27T18:33:33.666Z,23.41
2022-08-27T18:36:00.422Z,23.38
2022-08-27T18:38:27.046Z,23.33
2022-08-27T18:40:54.643Z,23.27
2022-08-27T18:43:29.654Z,23.22
2022-08-27T18:45:56.455Z,23.19
2022-08-27T18:48:23.865Z,23.15
2022-08-27T18:50:55.595Z,23.11
2022-08-27T18:53:22.215Z,23.10
2022-08-27T18:55:50.579Z,23.03
2022-08-27T18:58:18.065Z,23.01
2022-08-27T19:00:48.946Z,22.96
2022-08-27T19:03:21.966Z,22.92
2022-08-27T19:05:48.762Z,22.90
2022-08-27T19:08:22.891Z,22.93
2022-08-27T19:10:49.663Z,22.87
2022-08-27T19:13:16.474Z,22.82
2022-08-27T19:16:05.862Z,22.73
2022-08-27T19:18:35.512Z,22.68
2022-08-27T19:21:02.434Z,22.64
2022-08-27T19:23:29.198Z,22.60
2022-08-27T19:25:57.802Z,22.55
2022-08-27T19:28:37.746Z,22.52
2022-08-27T19:31:04.984Z,22.50
2022-08-27T19:33:31.667Z,22.47
2022-08-27T19:35:58.667Z,22.44
2022-08-27T19:38:28.526Z,22.41
2022-08-27T19:40:55.606Z,22.38
2022-08-27T19:43:22.204Z,22.35
2022-08-27T19:45:48.934Z,22.31
2022-08-27T19:48:16.680Z,22.26
2022-08-27T19:50:44.608Z,22.21
2022-08-27T19:53:11.278Z,22.16
2022-08-27T19:55:45.251Z,22.08
2022-08-27T19:58:14.097Z,22.02
2022-08-27T20:00:41.983Z,21.95
2022-08-27T20:03:08.634Z,21.90
2022-08-27T20:05:35.697Z,21.83
2022-08-27T20:08:03.561Z,21.78
2022-08-27T20:10:31.863Z,21.70
2022-08-27T20:13:03.017Z,21.62
2022-08-27T20:15:29.969Z,21.55
2022-08-27T20:17:59.362Z,21.47
2022-08-27T20:20:28.256Z,21.40
2022-08-27T20:22:55.917Z,21.33
2022-08-27T20:25:23.939Z,21.25
2022-08-27T20:27:51.090Z,21.18
2022-08-27T20:30:22.836Z,21.11
2022-08-27T20:32:49.657Z,21.04
2022-08-27T20:35:17.711Z,20.98
2022-08-27T20:37:44.568Z,20.91
2022-08-27T20:40:15.752Z,20.85
2022-08-27T20:42:42.685Z,20.80
2022-08-27T20:45:12.127Z,20.75
2022-08-27T20:47:40.107Z,20.70
2022-08-27T20:50:07.580Z,20.66
2022-08-27T20:52:35.693Z,20.61
2022-08-27T20:55:03.171Z,20.54
2022-08-27T20:57:29.789Z,20.50
2022-08-27T21:00:15.010Z,20.44
2022-08-27T21:02:41.676Z,20.36
2022-08-27T21:05:11.852Z,20.29
2022-08-27T21:07:38.915Z,20.24
2022-08-27T21:10:06.732Z,20.19
2022-08-27T21:12:33.598Z,20.14
2022-08-27T21:15:01.551Z,20.10
2022-08-27T21:17:29.459Z,20.05
2022-08-27T21:19:56.557Z,20.02
2022-08-27T21:22:24.886Z,19.98
2022-08-27T21:24:52.529Z,19.93
2022-08-27T21:27:24.248Z,19.89
2022-08-27T21:29:51.118Z,19.87
2022-08-27T21:32:18.433Z,19.83
2022-08-27T21:34:45.381Z,19.81
2022-08-27T21:37:13.779Z,19.77
2022-08-27T21:39:42.102Z,19.74
2022-08-27T21:42:10.068Z,19.72
2022-08-27T21:44:37.418Z,19.69
2022-08-27T21:47:04.512Z,19.66
2022-08-27T21:49:32.628Z,19.64
2022-08-27T21:52:00.823Z,19.60
2022-08-27T21:54:27.950Z,19.57
2022-08-27T21:56:54.859Z,19.55
2022-08-27T21:59:21.960Z,19.50
2022-08-27T22:01:55.830Z,19.46
2022-08-27T22:04:27.484Z,19.40
2022-08-27T22:06:57.784Z,19.37
2022-08-27T22:09:24.400Z,19.31
2022-08-27T22:11:51.236Z,19.25
2022-08-27T22:14:17.871Z,19.19
2022-08-27T22:16:44.476Z,19.12
2022-08-27T22:19:11.124Z,19.05
2022-08-27T22:21:37.851Z,19.00
2022-08-27T22:24:05.961Z,18.95
2022-08-27T22:26:32.581Z,18.91
2022-08-27T22:28:59.525Z,18.86
2022-08-27T22:31:26.352Z,18.82
2022-08-27T22:33:53.581Z,18.78
2022-08-27T22:36:20.357Z,18.77
2022-08-27T22:38:47.727Z,18.72
2022-08-27T22:41:14.766Z,18.69
2022-08-27T22:43:45.542Z,18.66
2022-08-27T22:46:12.266Z,18.64
2022-08-27T22:48:39.180Z,18.62
2022-08-27T22:51:05.964Z,18.63
2022-08-27T22:53:36.315Z,18.64
2022-08-27T22:56:06.243Z,18.65
2022-08-27T22:58:32.884Z,18.68
2022-08-27T23:00:59.974Z,18.70
2022-08-27T23:03:26.880Z,18.72
2022-08-27T23:05:53.831Z,18.74
2022-08-27T23:08:23.088Z,18.77
2022-08-27T23:10:50.222Z,18.79
2022-08-27T23:13:16.860Z,18.82
2022-08-27T23:15:43.608Z,18.84
2022-08-27T23:18:10.512Z,18.87
2022-08-27T23:20:37.276Z,18.88
2022-08-27T23:23:04.141Z,18.90
2022-08-27T23:25:49.222Z,18.91
2022-08-27T23:28:16.203Z,18.93
2022-08-27T23:30:44.746Z,18.93
2022-08-27T23:33:13.183Z,18.94
2022-08-27T23:35:41.348Z,18.95
2022-08-27T23:38:07.978Z,18.95
2022-08-27T23:40:34.681Z,18.94
2022-08-27T23:43:01.883Z,18.92
2022-08-27T23:45:28.543Z,18.89
2022-08-27T23:47:55.121Z,18.85
2022-08-27T23:50:26.366Z,18.80
2022-08-27T23:53:01.786Z,18.73
2022-08-27T23:55:28.869Z,18.68
2022-08-27T23:57:57.779Z,18.60
